Time,TemperatureF,DewpointF,PressureIn,WindDirection,WindDirectionDegrees,WindSpeedMPH,WindSpeedGustMPH,Humidity,HourlyPrecipIn,Conditions,Clouds,dailyrainin,SoftwareType,DateUTC
2013-03-04 00:00:00,30.0,22.0,-100.00,SSE,160,4.0,4.0,70,0.00,,,-99.99,,2013-03-04 08:00:00,
2013-03-04 00:01:00,32.0,23.0,-100.00,SSE,154,6.0,9.0,69,0.00,,,-99.99,,2013-03-04 08:01:00,
2013-03-04 00:11:00,32.0,23.0,-100.00,SSE,158,4.0,6.0,70,0.00,,,-99.99,,2013-03-04 08:11:00,
2013-03-04 00:21:00,31.0,22.0,-100.00,SE,138,3.0,5.0,71,0.00,,,-99.99,,2013-03-04 08:21:00,
2013-03-04 00:31:00,31.0,22.0,-100.00,SE,138,3.0,5.0,71,0.00,,,-99.99,,2013-03-04 08:31:00,
2013-03-04 00:41:00,30.0,22.0,-100.00,SSE,160,4.0,4.0,70,0.00,,,-99.99,,2013-03-04 08:41:00,
2013-03-04 00:52:00,30.0,22.0,-100.00,SSE,160,4.0,4.0,70,0.00,,,-99.99,,2013-03-04 08:52:00,
2013-03-04 01:11:00,31.0,21.0,-100.00,SE,138,6.0,9.0,66,0.00,,,-99.99,,2013-03-04 09:11:00,
2013-03-04 01:21:00,31.0,20.0,-100.00,SE,127,4.0,8.0,66,0.00,,,-99.99,,2013-03-04 09:21:00,
2013-03-04 01:31:00,31.0,20.0,-100.00,SE,127,4.0,8.0,66,0.00,,,-99.99,,2013-03-04 09:31:00,
2013-03-04 01:42:00,30.0,20.0,-100.00,ESE,123,5.0,7.0,64,0.00,,,-99.99,,2013-03-04 09:42:00,
2013-03-04 01:52:00,30.0,20.0,-100.00,ESE,104,4.0,6.0,65,0.00,,,-99.99,,2013-03-04 09:52:00,
2013-03-04 02:01:00,30.0,20.0,-100.00,ESE,104,4.0,6.0,65,0.00,,,-99.99,,2013-03-04 10:01:00,
2013-03-04 02:11:00,29.0,19.0,-100.00,ESE,104,3.0,4.0,66,0.00,,,-99.99,,2013-03-04 10:11:00,
2013-03-04 02:21:00,29.0,18.0,-100.00,ESE,114,5.0,6.0,63,0.00,,,-99.99,,2013-03-04 10:21:00,
2013-03-04 02:31:00,29.0,18.0,-100.00,ESE,114,5.0,6.0,63,0.00,,,-99.99,,2013-03-04 10:31:00,
2013-03-04 02:42:00,29.0,19.0,-100.00,ESE,117,6.0,7.0,64,0.00,,,-99.99,,2013-03-04 10:42:00,
2013-03-04 02:52:00,30.0,17.0,-100.00,ESE,106,4.0,6.0,60,0.00,,,-99.99,,2013-03-04 10:52:00,
2013-03-04 03:01:00,30.0,17.0,-100.00,ESE,106,4.0,6.0,60,0.00,,,-99.99,,2013-03-04 11:01:00,
2013-03-04 03:11:00,29.0,18.0,-100.00,ESE,109,3.0,4.0,63,0.00,,,-99.99,,2013-03-04 11:11:00,
2013-03-04 03:21:00,27.0,18.0,-100.00,East,97,3.0,5.0,69,0.00,,,-99.99,,2013-03-04 11:21:00,
2013-03-04 03:31:00,27.0,18.0,-100.00,East,97,3.0,5.0,69,0.00,,,-99.99,,2013-03-04 11:31:00,
2013-03-04 03:41:00,28.0,18.0,-100.00,ESE,109,3.0,4.0,64,0.00,,,-99.99,,2013-03-04 11:41:00,
2013-03-04 03:52:00,28.0,18.0,-100.00,ESE,109,3.0,4.0,64,0.00,,,-99.99,,2013-03-04 11:52:00,
2013-03-04 04:01:00,28.0,18.0,-100.00,ESE,109,3.0,4.0,64,0.00,,,-99.99,,2013-03-04 12:01:00,
2013-03-04 04:11:00,29.0,16.0,-100.00,East,93,4.0,5.0,58,0.00,,,-99.99,,2013-03-04 12:11:00,
2013-03-04 04:22:00,28.0,16.0,-100.00,East,83,3.0,6.0,59,0.00,,,-99.99,,2013-03-04 12:22:00,
2013-03-04 04:32:00,28.0,16.0,-100.00,East,83,3.0,6.0,59,0.00,,,-99.99,,2013-03-04 12:32:00,
2013-03-04 04:42:00,28.0,17.0,-100.00,East,99,3.0,4.0,61,0.00,,,-99.99,,2013-03-04 12:42:00,
2013-03-04 04:53:00,28.0,16.0,-100.00,ENE,78,3.0,6.0,61,0.00,,,-99.99,,2013-03-04 12:53:00,
2013-03-04 05:02:00,28.0,16.0,-100.00,ENE,78,3.0,6.0,61,0.00,,,-99.99,,2013-03-04 13:02:00,
2013-03-04 05:11:00,27.0,17.0,-100.00,SE,140,2.0,3.0,67,0.00,,,-99.99,,2013-03-04 13:11:00,
2013-03-04 05:21:00,28.0,17.0,-100.00,SSE,151,5.0,7.0,64,0.00,,,-99.99,,2013-03-04 13:21:00,
2013-03-04 05:31:00,28.0,17.0,-100.00,SSE,151,5.0,7.0,64,0.00,,,-99.99,,2013-03-04 13:31:00,
2013-03-04 05:41:00,27.0,16.0,-100.00,SE,138,4.0,5.0,63,0.00,,,-99.99,,2013-03-04 13:41:00,
2013-03-04 05:52:00,27.0,16.0,-100.00,SE,138,4.0,5.0,63,0.00,,,-99.99,,2013-03-04 13:52:00,
2013-03-04 06:01:00,27.0,16.0,-100.00,SE,138,4.0,5.0,63,0.00,,,-99.99,,2013-03-04 14:01:00,
2013-03-04 06:11:00,27.0,17.0,-100.00,South,186,5.0,7.0,65,0.00,,,-99.99,,2013-03-04 14:11:00,
2013-03-04 06:22:00,27.0,17.0,-100.00,South,186,5.0,7.0,65,0.00,,,-99.99,,2013-03-04 14:22:00,
2013-03-04 06:32:00,27.0,17.0,-100.00,South,186,5.0,7.0,65,0.00,,,-99.99,,2013-03-04 14:32:00,
2013-03-04 06:41:00,27.0,15.0,-100.00,SSE,167,4.0,7.0,61,0.00,,,-99.99,,2013-03-04 14:41:00,
2013-03-04 06:52:00,27.0,15.0,-100.00,SSE,167,4.0,7.0,61,0.00,,,-99.99,,2013-03-04 14:52:00,
2013-03-04 07:01:00,27.0,15.0,-100.00,SSE,167,4.0,7.0,61,0.00,,,-99.99,,2013-03-04 15:01:00,
2013-03-04 07:11:00,27.0,16.0,-100.00,SSE,148,3.0,5.0,62,0.00,,,-99.99,,2013-03-04 15:11:00,
2013-03-04 07:21:00,27.0,15.0,-100.00,South,186,4.0,6.0,60,0.00,,,-99.99,,2013-03-04 15:21:00,
2013-03-04 07:31:00,27.0,15.0,-100.00,South,186,4.0,6.0,60,0.00,,,-99.99,,2013-03-04 15:31:00,
2013-03-04 07:42:00,27.0,16.0,-100.00,South,172,3.0,5.0,62,0.00,,,-99.99,,2013-03-04 15:42:00,
2013-03-04 07:52:00,27.0,16.0,-100.00,South,178,3.0,6.0,61,0.00,,,-99.99,,2013-03-04 15:52:00,
2013-03-04 08:02:00,27.0,16.0,-100.00,South,178,3.0,6.0,61,0.00,,,-99.99,,2013-03-04 16:02:00,
2013-03-04 08:11:00,29.0,16.0,-100.00,South,171,4.0,5.0,58,0.00,,,-99.99,,2013-03-04 16:11:00,
2013-03-04 08:21:00,29.0,15.0,-100.00,ESE,116,6.0,8.0,56,0.00,,,-99.99,,2013-03-04 16:21:00,
2013-03-04 08:31:00,29.0,15.0,-100.00,ESE,116,6.0,8.0,56,0.00,,,-99.99,,2013-03-04 16:31:00,
2013-03-04 08:41:00,30.0,14.0,-100.00,SSW,192,9.0,11.0,50,0.00,,,-99.99,,2013-03-04 16:41:00,
2013-03-04 08:52:00,31.0,15.0,-100.00,SSW,196,7.0,10.0,52,0.00,,,-99.99,,2013-03-04 16:52:00,
2013-03-04 09:01:00,31.0,15.0,-100.00,SSW,196,7.0,10.0,52,0.00,,,-99.99,,2013-03-04 17:01:00,
2013-03-04 09:11:00,32.0,15.0,-100.00,South,184,8.0,10.0,50,0.00,,,-99.99,,2013-03-04 17:11:00,
2013-03-04 09:22:00,32.0,13.0,-100.00,SE,133,8.0,10.0,45,0.00,,,-99.99,,2013-03-04 17:22:00,
2013-03-04 09:31:00,32.0,13.0,-100.00,SE,133,8.0,10.0,45,0.00,,,-99.99,,2013-03-04 17:31:00,
2013-03-04 09:42:00,33.0,13.0,-100.00,SSW,205,10.0,13.0,44,0.00,,,-99.99,,2013-03-04 17:42:00,
2013-03-04 09:52:00,33.0,13.0,-100.00,SSW,210,11.0,15.0,43,0.00,,,-99.99,,2013-03-04 17:52:00,
2013-03-04 10:01:00,33.0,13.0,-100.00,SSW,210,11.0,15.0,43,0.00,,,-99.99,,2013-03-04 18:01:00,
2013-03-04 10:11:00,34.0,9.0,-100.00,SSW,209,11.0,17.0,36,0.00,,,-99.99,,2013-03-04 18:11:00,
2013-03-04 10:21:00,34.0,10.0,-100.00,SSE,147,12.0,17.0,36,0.00,,,-99.99,,2013-03-04 18:21:00,
2013-03-04 10:31:00,34.0,10.0,-100.00,SSE,147,12.0,17.0,36,0.00,,,-99.99,,2013-03-04 18:31:00,
2013-03-04 10:42:00,35.0,10.0,-100.00,SSE,155,9.0,12.0,36,0.00,,,-99.99,,2013-03-04 18:42:00,
2013-03-04 10:52:00,35.0,11.0,-100.00,SE,144,9.0,13.0,36,0.00,,,-99.99,,2013-03-04 18:52:00,
2013-03-04 11:01:00,35.0,11.0,-100.00,SE,144,9.0,13.0,36,0.00,,,-99.99,,2013-03-04 19:01:00,
2013-03-04 11:11:00,36.0,11.0,-100.00,SE,124,9.0,12.0,36,0.00,,,-99.99,,2013-03-04 19:11:00,
2013-03-04 11:21:00,36.0,12.0,-100.00,SSE,152,8.0,11.0,36,0.00,,,-99.99,,2013-03-04 19:21:00,
2013-03-04 11:31:00,36.0,12.0,-100.00,SSE,152,8.0,11.0,36,0.00,,,-99.99,,2013-03-04 19:31:00,
2013-03-04 11:41:00,36.0,11.0,-100.00,SE,131,9.0,11.0,35,0.00,,,-99.99,,2013-03-04 19:41:00,
2013-03-04 11:52:00,37.0,12.0,-100.00,SE,130,6.0,9.0,35,0.00,,,-99.99,,2013-03-04 19:52:00,
2013-03-04 12:01:00,37.0,12.0,-100.00,SE,130,6.0,9.0,35,0.00,,,-99.99,,2013-03-04 20:01:00,
2013-03-04 12:11:00,38.0,12.0,-100.00,SSE,155,9.0,14.0,32,0.00,,,-99.99,,2013-03-04 20:11:00,
2013-03-04 12:21:00,38.0,12.0,-100.00,SE,140,6.0,9.0,33,0.00,,,-99.99,,2013-03-04 20:21:00,
2013-03-04 12:31:00,38.0,12.0,-100.00,SE,140,6.0,9.0,33,0.00,,,-99.99,,2013-03-04 20:31:00,
2013-03-04 12:41:00,38.0,11.0,-100.00,SE,130,8.0,12.0,33,0.00,,,-99.99,,2013-03-04 20:41:00,
2013-03-04 12:52:00,38.0,12.0,-100.00,ESE,112,5.0,8.0,33,0.00,,,-99.99,,2013-03-04 20:52:00,
2013-03-04 13:01:00,38.0,12.0,-100.00,ESE,112,5.0,8.0,33,0.00,,,-99.99,,2013-03-04 21:01:00,
2013-03-04 13:11:00,38.0,9.0,-100.00,SE,140,8.0,10.0,29,0.00,,,-99.99,,2013-03-04 21:11:00,
2013-03-04 13:21:00,38.0,9.0,-100.00,SSE,152,7.0,11.0,30,0.00,,,-99.99,,2013-03-04 21:21:00,
2013-03-04 13:31:00,38.0,9.0,-100.00,SSE,152,7.0,11.0,30,0.00,,,-99.99,,2013-03-04 21:31:00,
2013-03-04 13:42:00,39.0,9.0,-100.00,SSE,161,4.0,6.0,28,0.00,,,-99.99,,2013-03-04 21:42:00,
2013-03-04 13:52:00,40.0,9.0,-100.00,SE,138,3.0,4.0,28,0.00,,,-99.99,,2013-03-04 21:52:00,
2013-03-04 14:01:00,40.0,9.0,-100.00,SE,138,3.0,4.0,28,0.00,,,-99.99,,2013-03-04 22:01:00,
2013-03-04 14:11:00,40.0,11.0,-100.00,SSE,158,7.0,11.0,31,0.00,,,-99.99,,2013-03-04 22:11:00,
2013-03-04 14:21:00,40.0,11.0,-100.00,SSE,158,7.0,11.0,31,0.00,,,-99.99,,2013-03-04 22:21:00,
2013-03-04 14:31:00,40.0,11.0,-100.00,SSE,158,7.0,11.0,31,0.00,,,-99.99,,2013-03-04 22:31:00,
2013-03-04 14:42:00,39.0,11.0,-100.00,NW,313,1.0,2.0,31,0.00,,,-99.99,,2013-03-04 22:42:00,
2013-03-04 14:52:00,40.0,11.0,-100.00,SSW,192,2.0,2.0,29,0.00,,,-99.99,,2013-03-04 22:52:00,
2013-03-04 15:01:00,40.0,11.0,-100.00,SSW,192,2.0,2.0,29,0.00,,,-99.99,,2013-03-04 23:01:00,
2013-03-04 15:11:00,40.0,12.0,-100.00,SE,140,7.0,9.0,31,0.00,,,-99.99,,2013-03-04 23:11:00,
2013-03-04 15:21:00,40.0,12.0,-100.00,SE,140,7.0,9.0,31,0.00,,,-99.99,,2013-03-04 23:21:00,
2013-03-04 15:31:00,40.0,12.0,-100.00,SE,140,7.0,9.0,31,0.00,,,-99.99,,2013-03-04 23:31:00,
2013-03-04 15:41:00,41.0,11.0,-100.00,SE,128,6.0,8.0,29,0.00,,,-99.99,,2013-03-04 23:41:00,
2013-03-04 15:52:00,41.0,10.0,-100.00,SE,124,6.0,10.0,28,0.00,,,-99.99,,2013-03-04 23:52:00,
2013-03-04 16:01:00,41.0,10.0,-100.00,SE,124,6.0,10.0,28,0.00,,,-99.99,,2013-03-05 00:01:00,
2013-03-04 16:11:00,41.0,11.0,-100.00,SE,131,6.0,9.0,29,0.00,,,-99.99,,2013-03-05 00:11:00,
2013-03-04 16:21:00,41.0,11.0,-100.00,SE,131,6.0,9.0,29,0.00,,,-99.99,,2013-03-05 00:21:00,
2013-03-04 16:32:00,41.0,11.0,-100.00,SE,131,6.0,9.0,29,0.00,,,-99.99,,2013-03-05 00:32:00,
2013-03-04 16:41:00,40.0,11.0,-100.00,SE,128,8.0,11.0,29,0.00,,,-99.99,,2013-03-05 00:41:00,
2013-03-04 16:52:00,40.0,11.0,-100.00,SE,131,6.0,7.0,29,0.00,,,-99.99,,2013-03-05 00:52:00,
2013-03-04 17:01:00,40.0,11.0,-100.00,SE,131,6.0,7.0,29,0.00,,,-99.99,,2013-03-05 01:01:00,
2013-03-04 17:12:00,39.0,11.0,-100.00,SSE,165,5.0,8.0,31,0.00,,,-99.99,,2013-03-05 01:12:00,
2013-03-04 17:21:00,38.0,13.0,-100.00,SSE,168,4.0,5.0,34,0.00,,,-99.99,,2013-03-05 01:21:00,
2013-03-04 17:32:00,38.0,13.0,-100.00,SSE,168,4.0,5.0,34,0.00,,,-99.99,,2013-03-05 01:32:00,
2013-03-04 17:41:00,37.0,13.0,-100.00,SSE,160,1.0,2.0,37,0.00,,,-99.99,,2013-03-05 01:41:00,
2013-03-04 17:52:00,36.0,16.0,-100.00,SE,138,1.0,2.0,45,0.00,,,-99.99,,2013-03-05 01:52:00,
2013-03-04 18:01:00,36.0,16.0,-100.00,SE,138,1.0,2.0,45,0.00,,,-99.99,,2013-03-05 02:01:00,
2013-03-04 18:11:00,34.0,18.0,-100.00,SSE,148,2.0,3.0,53,0.00,,,-99.99,,2013-03-05 02:11:00,
2013-03-04 18:21:00,33.0,15.0,-100.00,South,189,3.0,3.0,48,0.00,,,-99.99,,2013-03-05 02:21:00,
2013-03-04 18:32:00,33.0,15.0,-100.00,South,189,3.0,3.0,48,0.00,,,-99.99,,2013-03-05 02:32:00,
2013-03-04 18:41:00,31.0,19.0,-100.00,SSW,209,3.0,3.0,59,0.00,,,-99.99,,2013-03-05 02:41:00,
2013-03-04 18:52:00,31.0,19.0,-100.00,SSW,209,4.0,4.0,63,0.00,,,-99.99,,2013-03-05 02:52:00,
2013-03-04 19:01:00,31.0,19.0,-100.00,SSW,209,4.0,4.0,63,0.00,,,-99.99,,2013-03-05 03:01:00,
2013-03-04 19:12:00,32.0,16.0,-100.00,SE,128,3.0,4.0,52,0.00,,,-99.99,,2013-03-05 03:12:00,
2013-03-04 19:22:00,31.0,17.0,-100.00,ESE,104,3.0,4.0,55,0.00,,,-99.99,,2013-03-05 03:22:00,
2013-03-04 19:32:00,31.0,17.0,-100.00,ESE,104,3.0,4.0,55,0.00,,,-99.99,,2013-03-05 03:32:00,
2013-03-04 19:41:00,31.0,17.0,-100.00,ESE,109,3.0,4.0,55,0.00,,,-99.99,,2013-03-05 03:41:00,
2013-03-04 19:52:00,31.0,17.0,-100.00,ESE,109,3.0,4.0,55,0.00,,,-99.99,,2013-03-05 03:52:00,
2013-03-04 20:01:00,31.0,17.0,-100.00,ESE,109,3.0,4.0,55,0.00,,,-99.99,,2013-03-05 04:01:00,
2013-03-04 20:11:00,29.0,18.0,-100.00,South,191,3.0,5.0,62,0.00,,,-99.99,,2013-03-05 04:11:00,
2013-03-04 20:21:00,30.0,17.0,-100.00,ESE,120,4.0,6.0,56,0.00,,,-99.99,,2013-03-05 04:21:00,
2013-03-04 20:31:00,30.0,17.0,-100.00,ESE,120,4.0,6.0,56,0.00,,,-99.99,,2013-03-05 04:31:00,
2013-03-04 20:42:00,29.0,18.0,-100.00,SSE,165,3.0,4.0,61,0.00,,,-99.99,,2013-03-05 04:42:00,
2013-03-04 20:52:00,29.0,18.0,-100.00,SSW,192,3.0,4.0,61,0.00,,,-99.99,,2013-03-05 04:52:00,
2013-03-04 21:01:00,29.0,18.0,-100.00,SSW,192,3.0,4.0,61,0.00,,,-99.99,,2013-03-05 05:01:00,
2013-03-04 21:11:00,30.0,17.0,-100.00,ESE,120,5.0,8.0,58,0.00,,,-99.99,,2013-03-05 05:11:00,
2013-03-04 21:22:00,30.0,17.0,-100.00,ESE,120,5.0,8.0,58,0.00,,,-99.99,,2013-03-05 05:22:00,
2013-03-04 21:31:00,30.0,17.0,-100.00,ESE,120,5.0,8.0,58,0.00,,,-99.99,,2013-03-05 05:31:00,
2013-03-04 21:41:00,30.0,18.0,-100.00,ESE,112,4.0,6.0,60,0.00,,,-99.99,,2013-03-05 05:41:00,
2013-03-04 21:52:00,30.0,18.0,-100.00,ESE,123,6.0,7.0,60,0.00,,,-99.99,,2013-03-05 05:52:00,
2013-03-04 22:01:00,30.0,18.0,-100.00,ESE,123,6.0,7.0,60,0.00,,,-99.99,,2013-03-05 06:01:00,
2013-03-04 22:11:00,30.0,18.0,-100.00,SE,127,7.0,9.0,60,0.00,,,-99.99,,2013-03-05 06:11:00,
2013-03-04 22:22:00,30.0,18.0,-100.00,ESE,119,6.0,8.0,60,0.00,,,-99.99,,2013-03-05 06:22:00,
2013-03-04 22:31:00,30.0,18.0,-100.00,ESE,119,6.0,8.0,60,0.00,,,-99.99,,2013-03-05 06:31:00,
2013-03-04 22:41:00,30.0,18.0,-100.00,ESE,119,6.0,7.0,60,0.00,,,-99.99,,2013-03-05 06:41:00,
2013-03-04 22:52:00,30.0,18.0,-100.00,ESE,114,6.0,8.0,61,0.00,,,-99.99,,2013-03-05 06:52:00,
2013-03-04 23:01:00,30.0,18.0,-100.00,ESE,114,6.0,8.0,61,0.00,,,-99.99,,2013-03-05 07:01:00,
2013-03-04 23:11:00,30.0,17.0,-100.00,ESE,104,6.0,9.0,58,0.00,,,-99.99,,2013-03-05 07:11:00,
2013-03-04 23:21:00,30.0,18.0,-100.00,ESE,106,5.0,8.0,59,0.00,,,-99.99,,2013-03-05 07:21:00,
2013-03-04 23:31:00,30.0,18.0,-100.00,ESE,106,5.0,8.0,59,0.00,,,-99.99,,2013-03-05 07:31:00,
2013-03-04 23:41:00,30.0,17.0,-100.00,ESE,112,6.0,8.0,58,0.00,,,-99.99,,2013-03-05 07:41:00,
2013-03-04 23:52:00,30.0,17.0,-100.00,ESE,107,5.0,8.0,60,0.00,,,-99.99,,2013-03-05 07:52:00,